createdAt,value
2018-03-15T06:39:18.088Z,1.95
2018-03-15T06:40:02.816Z,2.02
2018-03-15T06:40:47.537Z,2.03
2018-03-15T06:41:32.266Z,2.10
2018-03-15T06:42:16.988Z,2.07
2018-03-15T06:43:01.695Z,2.07
2018-03-15T06:43:46.397Z,2.16
2018-03-15T06:44:31.104Z,2.14
2018-03-15T06:45:15.835Z,2.21
2018-03-15T06:46:00.562Z,2.21
2018-03-15T06:46:45.316Z,2.31
2018-03-15T06:47:30.066Z,2.45
2018-03-15T06:48:14.779Z,2.61
2018-03-15T06:48:59.483Z,2.77
2018-03-15T06:49:44.224Z,2.72
2018-03-15T06:50:28.909Z,2.85
2018-03-15T06:51:13.637Z,3.05
2018-03-15T06:51:58.371Z,3.14
2018-03-15T06:52:43.072Z,3.26
2018-03-15T06:53:27.775Z,3.47
2018-03-15T06:54:12.481Z,3.61
2018-03-15T06:54:57.221Z,3.62
2018-03-15T06:55:41.964Z,3.83
2018-03-15T06:56:26.664Z,3.88
2018-03-15T06:57:11.398Z,3.94
2018-03-15T06:57:56.208Z,4.06
2018-03-15T06:58:40.943Z,4.04
2018-03-15T06:59:25.675Z,4.22
2018-03-15T07:00:10.387Z,4.29
2018-03-15T07:00:55.137Z,4.41
2018-03-15T07:01:39.863Z,4.51
2018-03-15T07:02:24.572Z,4.58
2018-03-15T07:03:09.274Z,4.67
2018-03-15T07:03:53.982Z,4.70
2018-03-15T07:04:38.689Z,4.75
2018-03-15T07:05:23.397Z,4.86
2018-03-15T07:06:08.172Z,4.92
2018-03-15T07:06:52.916Z,5.03
2018-03-15T07:07:37.655Z,5.12
2018-03-15T07:08:22.362Z,5.17
2018-03-15T07:09:07.089Z,5.15
2018-03-15T07:09:51.795Z,5.17
2018-03-15T07:10:36.531Z,5.24
2018-03-15T07:11:21.277Z,5.18
2018-03-15T07:12:05.988Z,5.18
2018-03-15T07:12:50.691Z,5.15
2018-03-15T07:13:35.396Z,5.17
2018-03-15T07:14:20.104Z,5.18
2018-03-15T07:15:04.835Z,5.21
2018-03-15T07:15:49.563Z,5.21
2018-03-15T07:16:34.308Z,5.17
2018-03-15T07:17:18.995Z,5.17
2018-03-15T07:18:03.923Z,5.24
2018-03-15T07:18:48.632Z,5.27
2018-03-15T07:19:33.339Z,5.39
2018-03-15T07:20:18.118Z,5.48
2018-03-15T07:21:02.827Z,5.49
2018-03-15T07:21:47.533Z,5.53
2018-03-15T07:22:32.262Z,5.54
2018-03-15T07:23:16.966Z,5.54
2018-03-15T07:24:01.676Z,5.48
2018-03-15T07:24:46.379Z,5.64
2018-03-15T07:25:31.133Z,5.68
2018-03-15T07:26:15.838Z,5.74
2018-03-15T07:27:00.551Z,5.82
2018-03-15T07:27:45.278Z,5.78
2018-03-15T07:28:29.988Z,5.79
2018-03-15T07:29:14.696Z,5.91
2018-03-15T07:29:59.418Z,5.78
2018-03-15T07:30:44.127Z,5.78
2018-03-15T07:31:28.886Z,5.82
2018-03-15T07:32:13.615Z,5.72
2018-03-15T07:32:58.350Z,5.79
2018-03-15T07:33:43.055Z,5.86
2018-03-15T07:34:27.778Z,5.97
2018-03-15T07:35:12.492Z,6.09
2018-03-15T07:35:57.192Z,6.12
2018-03-15T07:36:41.951Z,6.15
2018-03-15T07:37:26.678Z,6.31
2018-03-15T07:38:11.440Z,6.41
2018-03-15T07:38:56.191Z,6.43
2018-03-15T07:39:40.924Z,6.59
2018-03-15T07:40:25.632Z,6.55
2018-03-15T07:41:10.411Z,6.66
2018-03-15T07:41:55.142Z,6.67
2018-03-15T07:42:39.845Z,6.66
2018-03-15T07:43:24.554Z,6.67
2018-03-15T07:44:09.281Z,6.64
2018-03-15T07:44:53.992Z,6.66
2018-03-15T07:45:38.695Z,6.67
2018-03-15T07:46:23.404Z,6.70
2018-03-15T07:47:08.159Z,6.74
2018-03-15T07:47:52.889Z,6.84
2018-03-15T07:48:37.577Z,6.81
2018-03-15T07:49:22.286Z,6.81
2018-03-15T07:50:07.016Z,6.81
2018-03-15T07:50:51.762Z,6.80
2018-03-15T07:51:36.500Z,6.88
2018-03-15T07:52:21.223Z,6.99
2018-03-15T07:53:05.930Z,6.97
2018-03-15T07:53:50.634Z,6.88
2018-03-15T07:54:35.393Z,6.89
2018-03-15T07:55:20.131Z,6.87
2018-03-15T07:56:04.870Z,6.84
2018-03-15T07:56:49.579Z,6.80
2018-03-15T07:57:34.401Z,6.87
2018-03-15T07:58:19.097Z,6.85
2018-03-15T07:59:03.853Z,6.94
2018-03-15T07:59:48.575Z,6.95
2018-03-15T08:00:33.321Z,7.05
2018-03-15T08:01:18.068Z,7.17
2018-03-15T08:02:02.823Z,7.31
2018-03-15T08:02:47.504Z,7.28
2018-03-15T08:03:32.211Z,7.32
2018-03-15T08:04:16.968Z,7.45
2018-03-15T08:05:01.703Z,7.53
2018-03-15T08:05:46.456Z,7.42
2018-03-15T08:06:31.173Z,7.27
2018-03-15T08:07:15.936Z,7.21
2018-03-15T08:08:00.601Z,7.15
2018-03-15T08:08:45.362Z,7.03
2018-03-15T08:09:30.117Z,7.03
2018-03-15T08:10:14.886Z,6.95
2018-03-15T08:10:59.649Z,6.94
2018-03-15T08:11:44.413Z,7.06
2018-03-15T08:12:29.131Z,7.03
2018-03-15T08:13:13.839Z,7.16
2018-03-15T08:13:58.617Z,7.20
2018-03-15T08:14:43.397Z,7.20
2018-03-15T08:15:28.127Z,7.09
2018-03-15T08:16:12.832Z,7.07
2018-03-15T08:16:57.560Z,6.98
2018-03-15T08:17:42.276Z,6.92
2018-03-15T08:18:27.024Z,6.88
2018-03-15T08:19:11.731Z,6.76
2018-03-15T08:19:56.464Z,6.92
2018-03-15T08:20:41.171Z,6.92
2018-03-15T08:21:25.882Z,6.92
2018-03-15T08:22:10.608Z,6.98
2018-03-15T08:22:55.316Z,7.02
2018-03-15T08:23:40.017Z,7.25
2018-03-15T08:24:24.775Z,7.23
2018-03-15T08:25:09.493Z,7.32
2018-03-15T08:25:54.221Z,7.28
2018-03-15T08:26:38.961Z,7.27
2018-03-15T08:27:23.676Z,7.17
2018-03-15T08:28:08.412Z,7.21
2018-03-15T08:28:53.141Z,7.06
2018-03-15T08:29:37.873Z,7.07
2018-03-15T08:30:22.635Z,6.94
2018-03-15T08:31:07.371Z,6.79
2018-03-15T08:31:52.124Z,6.77
2018-03-15T08:32:36.866Z,6.74
2018-03-15T08:33:21.661Z,6.71
2018-03-15T08:34:06.367Z,6.58
2018-03-15T08:34:51.150Z,6.70
2018-03-15T08:35:35.894Z,6.71
2018-03-15T08:36:20.597Z,6.85
2018-03-15T08:37:05.350Z,6.87
2018-03-15T08:37:50.057Z,6.91
2018-03-15T08:38:34.767Z,6.94
2018-03-15T08:39:19.513Z,6.95
2018-03-15T08:40:04.252Z,6.89
2018-03-15T08:40:48.983Z,6.94
2018-03-15T08:41:33.748Z,6.87
2018-03-15T08:42:18.477Z,6.92
2018-03-15T08:43:03.182Z,6.88
2018-03-15T08:43:47.888Z,6.79
2018-03-15T08:44:32.596Z,6.81
2018-03-15T08:45:17.329Z,6.81
2018-03-15T08:46:02.007Z,6.74
2018-03-15T08:46:46.714Z,6.74
2018-03-15T08:47:31.442Z,6.70
2018-03-15T08:48:16.177Z,6.71
2018-03-15T08:49:00.940Z,6.71
2018-03-15T08:49:45.652Z,6.66
2018-03-15T08:50:30.359Z,6.69
2018-03-15T08:51:15.067Z,6.67
2018-03-15T08:51:59.850Z,6.66
2018-03-15T08:52:44.572Z,6.55
2018-03-15T08:53:29.280Z,6.51
2018-03-15T08:54:13.989Z,6.38
2018-03-15T08:54:58.690Z,6.30
2018-03-15T08:55:43.403Z,6.14
2018-03-15T08:56:28.134Z,5.97
2018-03-15T08:57:12.845Z,5.81
2018-03-15T08:57:57.565Z,5.74
2018-03-15T08:58:42.277Z,5.78
2018-03-15T08:59:27.037Z,5.65
2018-03-15T09:00:11.786Z,5.75
2018-03-15T09:00:56.448Z,5.83
2018-03-15T09:01:41.154Z,5.81
2018-03-15T09:02:25.883Z,5.85
2018-03-15T09:03:10.591Z,5.99
2018-03-15T09:03:55.327Z,5.97
2018-03-15T09:04:40.593Z,6.03
2018-03-15T09:05:24.806Z,6.00
2018-03-15T09:06:09.515Z,6.22
2018-03-15T09:06:54.267Z,6.28
2018-03-15T09:07:38.972Z,6.31
2018-03-15T09:08:23.665Z,6.36
2018-03-15T09:09:08.403Z,6.37
2018-03-15T09:09:53.115Z,6.48
2018-03-15T09:10:37.840Z,6.52
2018-03-15T09:11:22.570Z,6.58
2018-03-15T09:12:07.282Z,6.58
2018-03-15T09:12:51.980Z,6.66
2018-03-15T09:13:36.716Z,6.69
2018-03-15T09:14:21.459Z,6.71
2018-03-15T09:15:06.163Z,6.66
2018-03-15T09:15:50.871Z,6.64
2018-03-15T09:16:35.804Z,6.58
2018-03-15T09:17:20.516Z,6.69
2018-03-15T09:18:05.243Z,6.74
2018-03-15T09:18:50.027Z,6.79
2018-03-15T09:19:34.731Z,6.92
2018-03-15T09:20:19.481Z,6.94
2018-03-15T09:21:04.220Z,6.92
2018-03-15T09:21:48.928Z,6.91
2018-03-15T09:22:33.634Z,6.80
2018-03-15T09:23:18.366Z,6.92
2018-03-15T09:24:03.100Z,6.95
2018-03-15T09:24:47.809Z,7.10
2018-03-15T09:25:32.534Z,7.05
2018-03-15T09:26:17.246Z,7.15
2018-03-15T09:27:02.004Z,7.24
2018-03-15T09:27:46.703Z,7.30
2018-03-15T09:28:31.442Z,7.42
2018-03-15T09:29:16.171Z,7.58
2018-03-15T09:30:00.877Z,7.64
2018-03-15T09:30:45.634Z,7.80
2018-03-15T09:31:30.353Z,7.85
2018-03-15T09:32:15.067Z,7.95
2018-03-15T09:32:59.768Z,7.98
2018-03-15T09:33:44.480Z,8.07
2018-03-15T09:34:29.221Z,8.20
2018-03-15T09:35:13.911Z,8.36
2018-03-15T09:35:58.615Z,8.52
2018-03-15T09:36:43.333Z,8.56
2018-03-15T09:37:28.045Z,8.73
2018-03-15T09:38:12.801Z,8.80
2018-03-15T09:38:57.472Z,8.86
2018-03-15T09:39:42.162Z,8.84
2018-03-15T09:40:26.878Z,8.81
2018-03-15T09:41:11.576Z,8.84
2018-03-15T09:41:56.289Z,8.92
2018-03-15T09:42:41.004Z,8.96
2018-03-15T09:43:25.711Z,9.10
2018-03-15T09:44:10.421Z,9.04
2018-03-15T09:44:55.148Z,9.10
2018-03-15T09:45:39.912Z,9.17
2018-03-15T09:46:24.618Z,9.13
2018-03-15T09:47:09.377Z,9.15
2018-03-15T09:47:54.100Z,9.10
2018-03-15T09:48:38.826Z,9.23
2018-03-15T09:49:23.528Z,9.31
2018-03-15T09:50:08.268Z,9.31
2018-03-15T09:50:53.028Z,9.47
2018-03-15T09:51:37.788Z,9.58
2018-03-15T09:52:22.535Z,9.76
2018-03-15T09:53:07.235Z,9.81
2018-03-15T09:53:51.969Z,9.97
2018-03-15T09:54:36.743Z,10.01
2018-03-15T09:55:21.493Z,10.17
2018-03-15T09:56:06.222Z,10.15
2018-03-15T09:56:50.993Z,10.20
2018-03-15T09:57:35.701Z,10.25
2018-03-15T09:58:20.513Z,10.15
2018-03-15T09:59:05.239Z,10.11
2018-03-15T09:59:49.949Z,10.02
2018-03-15T10:00:34.787Z,10.08
2018-03-15T10:01:19.441Z,10.12
2018-03-15T10:02:04.161Z,9.99
2018-03-15T10:02:48.868Z,9.94
2018-03-15T10:03:33.662Z,10.07
2018-03-15T10:04:18.370Z,10.04
2018-03-15T10:05:03.090Z,10.04
2018-03-15T10:05:47.864Z,10.05
2018-03-15T10:06:32.543Z,10.02
2018-03-15T10:07:17.283Z,10.08
2018-03-15T10:08:02.037Z,10.05
2018-03-15T10:09:46.295Z,10.23
2018-03-15T10:10:31.073Z,10.26
2018-03-15T10:11:15.796Z,10.30
2018-03-15T10:12:00.506Z,10.33
2018-03-15T10:12:45.344Z,10.26
2018-03-15T10:13:30.086Z,10.36
2018-03-15T10:14:14.787Z,10.53
2018-03-15T10:14:59.497Z,10.44
2018-03-15T10:15:44.295Z,10.51
2018-03-15T10:16:29.076Z,10.51
2018-03-15T10:17:13.860Z,10.70
2018-03-15T10:17:58.592Z,10.61
2018-03-15T10:18:43.297Z,10.64
2018-03-15T10:19:28.003Z,10.68
2018-03-15T10:20:12.720Z,10.64
2018-03-15T10:20:57.450Z,10.52
2018-03-15T10:21:42.187Z,10.59
2018-03-15T10:22:26.902Z,10.48
2018-03-15T10:23:11.671Z,10.47
2018-03-15T10:23:56.378Z,10.38
2018-03-15T10:24:41.085Z,10.32
2018-03-15T10:25:26.390Z,10.25
2018-03-15T10:26:10.562Z,10.20
2018-03-15T10:26:55.325Z,10.25
2018-03-15T10:27:40.034Z,10.27
2018-03-15T10:28:24.763Z,10.27
2018-03-15T10:29:09.471Z,10.32
2018-03-15T10:29:54.229Z,10.40
2018-03-15T10:30:38.909Z,10.42
2018-03-15T10:31:23.619Z,10.61
2018-03-15T10:32:08.332Z,10.51
2018-03-15T10:32:53.052Z,10.60
2018-03-15T10:33:37.769Z,10.68
2018-03-15T10:34:22.471Z,10.76
2018-03-15T10:35:07.202Z,10.94
2018-03-15T10:35:51.919Z,11.04
2018-03-15T10:36:36.626Z,10.97
2018-03-15T10:37:21.436Z,11.03
2018-03-15T10:38:06.160Z,11.06
2018-03-15T10:38:50.876Z,11.06
2018-03-15T10:39:35.593Z,11.00
2018-03-15T10:40:20.370Z,10.94
2018-03-15T10:41:05.087Z,11.09
2018-03-15T10:41:49.799Z,11.03
2018-03-15T10:42:34.529Z,10.94
2018-03-15T10:43:19.232Z,11.00
2018-03-15T10:44:03.942Z,10.97
2018-03-15T10:44:48.656Z,11.09
2018-03-15T10:45:33.379Z,11.11
2018-03-15T10:46:18.147Z,11.19
2018-03-15T10:47:02.866Z,11.14
2018-03-15T10:47:47.588Z,11.22
2018-03-15T10:48:32.302Z,11.22
2018-03-15T10:49:17.020Z,11.27
2018-03-15T10:50:01.743Z,11.28
2018-03-15T10:50:46.453Z,11.32
2018-03-15T10:51:31.165Z,11.36
2018-03-15T10:52:15.884Z,11.42
2018-03-15T10:53:00.599Z,11.55
2018-03-15T10:53:45.354Z,11.58
2018-03-15T10:54:30.114Z,11.51
2018-03-15T10:55:14.834Z,11.60
2018-03-15T10:55:59.547Z,11.60
2018-03-15T10:56:44.261Z,11.52
2018-03-15T10:57:28.980Z,11.62
2018-03-15T10:58:13.691Z,11.67
2018-03-15T10:58:58.406Z,11.82
2018-03-15T10:59:43.181Z,11.80
2018-03-15T11:00:27.888Z,11.83
2018-03-15T11:01:12.597Z,11.90
2018-03-15T11:01:57.310Z,11.94
2018-03-15T11:02:42.042Z,12.04
2018-03-15T11:03:26.747Z,11.98
2018-03-15T11:04:11.461Z,11.96
2018-03-15T11:04:56.185Z,11.96
2018-03-15T11:05:40.894Z,11.96
2018-03-15T11:06:25.600Z,12.01
2018-03-15T11:07:10.353Z,11.98
2018-03-15T11:07:55.068Z,11.90
2018-03-15T11:08:39.788Z,11.98
2018-03-15T11:09:24.501Z,11.95
2018-03-15T11:10:09.259Z,12.09
2018-03-15T11:10:53.978Z,12.10
2018-03-15T11:11:38.695Z,12.14
2018-03-15T11:12:23.403Z,12.16
2018-03-15T11:13:08.104Z,12.12
2018-03-15T11:13:52.819Z,12.17
2018-03-15T11:14:37.544Z,12.12
2018-03-15T11:15:22.266Z,12.10
2018-03-15T11:16:06.973Z,12.19
2018-03-15T11:16:51.694Z,12.07
2018-03-15T11:17:36.400Z,12.10
2018-03-15T11:18:21.112Z,12.12
2018-03-15T11:19:05.833Z,12.10
2018-03-15T11:19:50.545Z,12.13
2018-03-15T11:20:35.270Z,12.05
2018-03-15T11:21:19.979Z,12.02
2018-03-15T11:22:04.692Z,11.90
2018-03-15T11:22:49.414Z,11.82
2018-03-15T11:23:34.116Z,11.52
2018-03-15T11:24:18.827Z,11.33
2018-03-15T11:25:03.552Z,11.17
2018-03-15T11:25:48.261Z,10.86
2018-03-15T11:26:32.971Z,10.45
2018-03-15T11:27:17.679Z,10.33
2018-03-15T11:28:02.385Z,10.02
2018-03-15T11:28:47.096Z,9.87
2018-03-15T11:29:31.800Z,9.81
2018-03-15T11:30:16.512Z,9.72
2018-03-15T11:31:01.279Z,9.81
2018-03-15T11:31:46.454Z,9.68
2018-03-15T11:32:31.120Z,9.57
2018-03-15T11:33:15.821Z,9.57
2018-03-15T11:34:00.527Z,9.57
2018-03-15T11:34:45.244Z,9.43
2018-03-15T11:35:29.927Z,9.39
2018-03-15T11:36:14.638Z,9.32
2018-03-15T11:36:59.372Z,9.28
2018-03-15T11:37:44.072Z,9.24
2018-03-15T11:38:28.790Z,9.14
2018-03-15T11:39:13.710Z,9.10
2018-03-15T11:39:58.408Z,9.01
2018-03-15T11:40:43.146Z,8.96
2018-03-15T11:41:27.904Z,8.91
2018-03-15T11:42:12.646Z,8.83
2018-03-15T11:42:57.376Z,8.76
2018-03-15T11:43:42.171Z,8.61
2018-03-15T11:44:26.856Z,8.59
2018-03-15T11:45:11.566Z,8.62
2018-03-15T11:45:56.285Z,8.59
2018-03-15T11:46:40.989Z,8.68
2018-03-15T11:47:25.700Z,8.59
2018-03-15T11:48:10.422Z,8.62
2018-03-15T11:48:55.124Z,8.66
2018-03-15T11:49:39.833Z,8.63
2018-03-15T11:50:24.570Z,8.76
2018-03-15T11:51:09.332Z,8.68
2018-03-15T11:51:54.056Z,8.70
2018-03-15T11:52:38.789Z,8.58
2018-03-15T11:53:23.695Z,8.61
2018-03-15T11:54:08.401Z,8.61
2018-03-15T11:54:53.110Z,8.71
2018-03-15T11:55:37.880Z,8.76
2018-03-15T11:56:22.599Z,8.83
2018-03-15T11:57:07.303Z,8.92
2018-03-15T11:57:52.061Z,8.96
2018-03-15T11:58:36.764Z,9.13
2018-03-15T11:59:21.473Z,9.11
2018-03-15T12:00:06.225Z,9.23
2018-03-15T12:00:50.929Z,9.31
2018-03-15T12:01:35.678Z,9.29
2018-03-15T12:02:20.359Z,9.29
2018-03-15T12:03:05.075Z,9.39
2018-03-15T12:03:49.793Z,9.46
2018-03-15T12:04:34.518Z,9.51
2018-03-15T12:05:19.225Z,9.53
2018-03-15T12:06:03.944Z,9.50
2018-03-15T12:06:48.667Z,9.36
2018-03-15T12:07:33.442Z,9.38
2018-03-15T12:08:18.254Z,9.36
2018-03-15T12:09:02.947Z,9.46
2018-03-15T12:09:47.654Z,9.36
2018-03-15T12:10:32.359Z,9.26
2018-03-15T12:11:17.071Z,9.23
2018-03-15T12:12:01.824Z,9.28
2018-03-15T12:12:46.577Z,9.29
2018-03-15T12:13:31.368Z,9.32
2018-03-15T12:14:16.085Z,9.28
2018-03-15T12:15:00.792Z,9.28
2018-03-15T12:15:45.496Z,9.28
2018-03-15T12:16:30.189Z,9.39
2018-03-15T12:17:14.935Z,9.47
2018-03-15T12:17:59.622Z,9.38
2018-03-15T12:18:44.328Z,9.42
2018-03-15T12:19:29.058Z,9.51
2018-03-15T12:20:13.766Z,9.60
2018-03-15T12:20:58.474Z,9.56
2018-03-15T12:21:43.203Z,9.51
2018-03-15T12:22:27.910Z,9.54
2018-03-15T12:23:12.615Z,9.51
2018-03-15T12:23:57.323Z,9.57
2018-03-15T12:24:42.127Z,9.68
2018-03-15T12:25:26.822Z,9.61
2018-03-15T12:26:11.534Z,9.71
2018-03-15T12:26:56.261Z,9.60
2018-03-15T12:27:40.991Z,9.72
2018-03-15T12:28:25.725Z,9.61
2018-03-15T12:29:10.425Z,9.66
2018-03-15T12:29:55.199Z,9.69
2018-03-15T12:30:39.951Z,9.71
2018-03-15T12:31:24.664Z,9.81
2018-03-15T12:32:09.398Z,9.69
2018-03-15T12:32:54.131Z,9.68
2018-03-15T12:33:38.855Z,9.69
2018-03-15T12:34:23.563Z,9.64
2018-03-15T12:35:08.332Z,9.64
2018-03-15T12:35:53.028Z,9.64
2018-03-15T12:36:37.811Z,9.60
2018-03-15T12:37:22.519Z,9.68
2018-03-15T12:38:07.300Z,9.74
2018-03-15T12:38:52.011Z,9.78
2018-03-15T12:39:36.719Z,9.84
2018-03-15T12:40:21.445Z,9.87
2018-03-15T12:41:06.151Z,9.90
2018-03-15T12:41:50.888Z,9.89
2018-03-15T12:42:35.600Z,9.90
2018-03-15T12:43:20.300Z,9.94
2018-03-15T12:44:05.005Z,10.12
2018-03-15T12:44:49.711Z,10.15
2018-03-15T12:45:34.420Z,10.18
2018-03-15T12:46:19.178Z,10.36
2018-03-15T12:47:03.919Z,10.41
2018-03-15T12:47:48.629Z,10.53
2018-03-15T12:48:33.343Z,10.60
2018-03-15T12:49:18.144Z,10.66
2018-03-15T12:50:02.857Z,10.73
2018-03-15T12:50:47.574Z,10.88
2018-03-15T12:51:32.274Z,10.92
2018-03-15T12:52:16.988Z,10.96
2018-03-15T12:53:01.753Z,10.89
2018-03-15T12:53:46.474Z,10.96
2018-03-15T12:54:31.199Z,11.00
2018-03-15T12:55:15.954Z,10.88
2018-03-15T12:56:00.663Z,10.91
2018-03-15T12:56:45.366Z,11.02
2018-03-15T12:57:30.121Z,11.02
2018-03-15T12:58:14.799Z,11.14
2018-03-15T12:58:59.509Z,11.15
2018-03-15T12:59:44.219Z,11.10
2018-03-15T13:00:28.964Z,11.19
2018-03-15T13:01:13.657Z,11.18
2018-03-15T13:01:58.409Z,11.22
2018-03-15T13:02:43.396Z,11.33
2018-03-15T13:03:28.106Z,11.37
2018-03-15T13:04:12.814Z,11.35
2018-03-15T13:04:57.528Z,11.28
2018-03-15T13:05:42.270Z,11.21
2018-03-15T13:06:26.970Z,11.24
2018-03-15T13:07:11.774Z,11.25
2018-03-15T13:07:56.480Z,11.25
2018-03-15T13:08:41.211Z,11.15
2018-03-15T13:09:25.989Z,11.02
2018-03-15T13:10:10.693Z,11.00
2018-03-15T13:10:55.406Z,11.04
2018-03-15T13:11:40.166Z,10.99
2018-03-15T13:12:25.091Z,11.06
2018-03-15T13:13:09.823Z,11.14
2018-03-15T13:13:54.505Z,11.15
2018-03-15T13:14:39.237Z,11.25
2018-03-15T13:15:23.944Z,11.18
2018-03-15T13:16:08.652Z,11.28
2018-03-15T13:16:53.441Z,11.24
2018-03-15T13:17:38.164Z,11.32
2018-03-15T13:18:22.875Z,11.40
2018-03-15T13:19:07.602Z,11.36
2018-03-15T13:19:52.312Z,11.37
2018-03-15T13:20:37.023Z,11.33
2018-03-15T13:21:21.753Z,11.33
2018-03-15T13:22:06.491Z,11.35
2018-03-15T13:22:51.207Z,11.36
2018-03-15T13:23:35.938Z,11.42
2018-03-15T13:24:20.649Z,11.40
2018-03-15T13:25:05.372Z,11.46
2018-03-15T13:25:50.104Z,11.40
2018-03-15T13:26:34.811Z,11.55
2018-03-15T13:27:19.581Z,11.55
2018-03-15T13:28:04.302Z,11.73
2018-03-15T13:28:49.038Z,11.85
2018-03-15T13:29:33.765Z,11.86
2018-03-15T13:30:18.567Z,12.07
2018-03-15T13:31:03.235Z,12.19
2018-03-15T13:31:47.985Z,12.23
2018-03-15T13:32:32.690Z,12.20
2018-03-15T13:33:17.399Z,12.20
2018-03-15T13:34:02.107Z,12.32
2018-03-15T13:34:46.839Z,12.28
2018-03-15T13:35:31.556Z,12.23
2018-03-15T13:36:16.256Z,12.34
2018-03-15T13:37:00.987Z,12.35
2018-03-15T13:37:45.693Z,12.31
2018-03-15T13:38:30.400Z,12.38
2018-03-15T13:39:15.185Z,12.42
2018-03-15T13:39:59.832Z,12.49
2018-03-15T13:40:44.542Z,12.39
2018-03-15T13:41:29.250Z,12.35
2018-03-15T13:42:14.286Z,12.29
2018-03-15T13:42:58.991Z,12.31
2018-03-15T13:43:43.695Z,12.19
2018-03-15T13:44:28.409Z,12.27
2018-03-15T13:45:13.116Z,12.17
2018-03-15T13:45:57.826Z,12.16
2018-03-15T13:46:42.556Z,12.17
2018-03-15T13:47:27.365Z,12.17
2018-03-15T13:48:12.086Z,12.29
2018-03-15T13:48:56.820Z,12.24
2018-03-15T13:49:41.563Z,12.41
2018-03-15T13:50:26.276Z,12.46
2018-03-15T13:51:11.012Z,12.38
2018-03-15T13:51:55.784Z,12.34
2018-03-15T13:52:40.488Z,12.41
2018-03-15T13:53:25.251Z,12.42
2018-03-15T13:54:09.982Z,12.35
2018-03-15T13:54:54.689Z,12.37
2018-03-15T13:55:39.398Z,12.46
2018-03-15T13:56:24.132Z,12.46
2018-03-15T13:57:08.910Z,12.45
2018-03-15T13:57:53.618Z,12.45
2018-03-15T13:58:38.404Z,12.47
2018-03-15T13:59:23.105Z,12.56
2018-03-15T14:00:07.814Z,12.52
2018-03-15T14:00:52.586Z,12.52
2018-03-15T14:01:37.295Z,12.52
2018-03-15T14:02:22.027Z,12.53
2018-03-15T14:03:06.867Z,12.42
2018-03-15T14:03:51.588Z,12.45
2018-03-15T14:04:36.296Z,12.45
2018-03-15T14:05:21.007Z,12.27
2018-03-15T14:06:05.733Z,12.23
2018-03-15T14:06:50.446Z,12.20
2018-03-15T14:07:35.188Z,12.05
2018-03-15T14:08:19.883Z,12.05
2018-03-15T14:09:04.594Z,12.09
2018-03-15T14:09:49.303Z,12.16
2018-03-15T14:10:34.080Z,12.16
2018-03-15T14:11:18.789Z,12.17
2018-03-15T14:12:03.500Z,12.12
2018-03-15T14:12:48.231Z,12.09
2018-03-15T14:13:32.942Z,12.02
2018-03-15T14:14:17.646Z,12.01
2018-03-15T14:15:02.355Z,11.99
2018-03-15T14:15:47.114Z,11.91
2018-03-15T14:16:31.846Z,11.94
2018-03-15T14:17:16.555Z,11.90
2018-03-15T14:18:01.268Z,11.76
2018-03-15T14:18:45.994Z,11.75
2018-03-15T14:19:30.710Z,11.69
2018-03-15T14:20:15.436Z,11.75
2018-03-15T14:21:00.167Z,11.76
2018-03-15T14:21:44.881Z,11.83
2018-03-15T14:22:29.681Z,11.83
2018-03-15T14:23:14.434Z,11.80
2018-03-15T14:23:59.120Z,11.98
2018-03-15T14:24:43.825Z,12.04
2018-03-15T14:25:28.533Z,11.95
2018-03-15T14:26:13.259Z,11.95
2018-03-15T14:26:57.973Z,11.95
2018-03-15T14:27:42.682Z,11.99
2018-03-15T14:28:27.390Z,11.98
2018-03-15T14:29:12.100Z,12.01
2018-03-15T14:29:56.807Z,11.96
2018-03-15T14:30:41.730Z,12.10
2018-03-15T14:31:26.417Z,12.07
2018-03-15T14:32:11.152Z,12.13
2018-03-15T14:32:55.834Z,12.20
2018-03-15T14:33:40.567Z,12.13
2018-03-15T14:34:25.321Z,12.23
2018-03-15T14:35:10.028Z,12.27
2018-03-15T14:35:54.736Z,12.34
2018-03-15T14:36:39.446Z,12.45
2018-03-15T14:37:24.186Z,12.42
2018-03-15T14:38:08.911Z,12.53
2018-03-15T14:38:53.626Z,12.59
2018-03-15T14:39:38.369Z,12.70
2018-03-15T14:40:23.064Z,12.72
2018-03-15T14:41:07.788Z,12.83
2018-03-15T14:41:52.536Z,12.92
2018-03-15T14:42:37.302Z,12.90
2018-03-15T14:43:22.009Z,12.90
2018-03-15T14:44:06.801Z,12.97
2018-03-15T14:44:51.586Z,13.01
2018-03-15T14:45:36.263Z,13.00
2018-03-15T14:46:21.026Z,13.05
2018-03-15T14:47:05.774Z,13.12
2018-03-15T14:47:50.499Z,13.14
2018-03-15T14:48:35.299Z,13.25
2018-03-15T14:49:20.031Z,13.25
2018-03-15T14:50:04.735Z,13.25
2018-03-15T14:50:49.460Z,13.29
2018-03-15T14:51:34.221Z,13.29
2018-03-15T14:52:18.954Z,13.30
2018-03-15T14:53:03.708Z,13.30
2018-03-15T14:53:48.523Z,13.23
2018-03-15T14:54:33.278Z,13.22
2018-03-15T14:55:17.979Z,13.22
2018-03-15T14:56:02.917Z,13.23
2018-03-15T14:56:47.634Z,13.12
2018-03-15T14:57:32.422Z,13.15
2018-03-15T14:58:17.167Z,13.15
2018-03-15T14:59:01.903Z,13.07
2018-03-15T14:59:46.671Z,13.12
2018-03-15T15:00:31.496Z,12.93
2018-03-15T15:01:16.233Z,13.08
2018-03-15T15:02:00.942Z,13.00
2018-03-15T15:02:45.648Z,13.10
2018-03-15T15:03:30.430Z,13.00
2018-03-15T15:04:15.162Z,13.01
2018-03-15T15:04:59.921Z,12.96
2018-03-15T15:05:44.650Z,13.03
2018-03-15T15:06:29.362Z,13.11
2018-03-15T15:07:14.071Z,13.08
2018-03-15T15:07:58.799Z,13.19
2018-03-15T15:08:43.513Z,13.25
2018-03-15T15:09:28.219Z,13.25
2018-03-15T15:10:12.956Z,13.20
2018-03-15T15:10:57.693Z,13.25
2018-03-15T15:11:42.405Z,13.20
2018-03-15T15:12:27.147Z,13.23
2018-03-15T15:13:11.927Z,13.29
2018-03-15T15:13:56.631Z,13.29
2018-03-15T15:14:41.413Z,13.36
2018-03-15T15:15:26.119Z,13.38
2018-03-15T15:16:10.824Z,13.44
2018-03-15T15:16:55.535Z,13.38
2018-03-15T15:17:40.268Z,13.36
2018-03-15T15:18:24.978Z,13.36
2018-03-15T15:19:09.681Z,13.23
2018-03-15T15:19:54.400Z,13.20
2018-03-15T15:20:39.173Z,13.23
2018-03-15T15:21:23.880Z,13.23
2018-03-15T15:22:08.590Z,13.23
2018-03-15T15:22:53.326Z,13.20
2018-03-15T15:23:38.037Z,13.19
2018-03-15T15:24:22.736Z,13.08
2018-03-15T15:25:07.501Z,13.08
2018-03-15T15:25:52.211Z,13.14
2018-03-15T15:26:36.921Z,13.05
2018-03-15T15:27:21.700Z,13.00
2018-03-15T15:28:06.404Z,13.04
2018-03-15T15:28:51.129Z,13.04
2018-03-15T15:29:35.891Z,12.92
2018-03-15T15:30:20.815Z,12.93
2018-03-15T15:31:05.537Z,12.96
2018-03-15T15:31:50.281Z,12.86
2018-03-15T15:32:35.017Z,12.87
2018-03-15T15:33:19.744Z,12.93
2018-03-15T15:34:04.449Z,12.95
2018-03-15T15:34:49.161Z,12.97
2018-03-15T15:35:33.892Z,12.83
2018-03-15T15:36:18.603Z,12.75
2018-03-15T15:37:03.315Z,12.75
2018-03-15T15:37:48.022Z,12.72
2018-03-15T15:38:32.795Z,12.60
2018-03-15T15:39:17.560Z,12.59
2018-03-15T15:40:02.293Z,12.57
2018-03-15T15:40:47.002Z,12.56
2018-03-15T15:41:31.715Z,12.53
2018-03-15T15:42:16.500Z,12.64
2018-03-15T15:43:01.224Z,12.56
2018-03-15T15:43:45.984Z,12.54
2018-03-15T15:44:30.770Z,12.52
2018-03-15T15:45:15.492Z,12.53
2018-03-15T15:46:00.251Z,12.49
2018-03-15T15:46:45.047Z,12.49
2018-03-15T15:47:29.808Z,12.53
2018-03-15T15:48:14.560Z,12.38
2018-03-15T15:48:59.284Z,12.37
2018-03-15T15:49:44.008Z,12.31
2018-03-15T15:50:28.721Z,12.19
2018-03-15T15:51:13.426Z,12.17
2018-03-15T15:51:58.137Z,12.19
2018-03-15T15:52:43.060Z,12.07
2018-03-15T15:53:27.772Z,11.99
2018-03-15T15:54:12.552Z,11.90
2018-03-15T15:54:57.253Z,11.90
2018-03-15T15:55:41.964Z,11.72
2018-03-15T15:56:26.667Z,11.57
2018-03-15T15:57:11.374Z,11.67
2018-03-15T15:57:56.104Z,11.57
2018-03-15T15:58:40.812Z,11.54
2018-03-15T15:59:25.552Z,11.58
2018-03-15T16:00:10.289Z,11.52
2018-03-15T16:00:54.997Z,11.52
2018-03-15T16:01:39.703Z,11.42
2018-03-15T16:02:24.410Z,11.43
2018-03-15T16:03:09.123Z,11.33
2018-03-15T16:03:53.851Z,11.39
2018-03-15T16:04:38.583Z,11.39
2018-03-15T16:05:23.339Z,11.40
2018-03-15T16:06:08.068Z,11.37
2018-03-15T16:06:52.824Z,11.29
2018-03-15T16:07:37.528Z,11.40
2018-03-15T16:08:22.309Z,11.37
2018-03-15T16:09:07.016Z,11.32
2018-03-15T16:09:51.720Z,11.19
2018-03-15T16:10:36.427Z,11.22
2018-03-15T16:11:21.137Z,11.25
2018-03-15T16:12:05.866Z,11.25
2018-03-15T16:12:50.576Z,11.22
2018-03-15T16:13:35.286Z,11.25
2018-03-15T16:14:20.012Z,11.35
2018-03-15T16:15:04.726Z,11.32
2018-03-15T16:15:49.466Z,11.27
2018-03-15T16:16:34.162Z,11.33
2018-03-15T16:17:18.869Z,11.29
2018-03-15T16:18:03.601Z,11.22
2018-03-15T16:18:48.349Z,11.28
2018-03-15T16:19:33.027Z,11.28
2018-03-15T16:20:17.741Z,11.29
2018-03-15T16:21:02.473Z,11.24
2018-03-15T16:21:47.225Z,11.24
2018-03-15T16:22:31.931Z,11.25
2018-03-15T16:23:16.640Z,11.22
2018-03-15T16:24:01.350Z,11.17
2018-03-15T16:24:46.084Z,11.17